Main page
METAR-TAF:

METAR-TAF

Airports :

Carcassonne Airport

Carcassonne, France

latitude: 43-13N, longitude: 002-19E, elevation: 130 m

Current weather observation

The report was made 39 minutes ago, at 01:00 UTC
Wind 13 kt from the West
Temperature 22°C
Humidity 83%
Pressure 1018 hPa
Visibility 10 km or more
Broken clouds at a height of 1900 ft

METAR: LFMK 220100Z AUTO 28013KT 9999 BKN019 22/19 Q1018

Time: 03:39 (01:39 UTC)

Forecast

The report was made 17 hours and 39 minutes ago, at 08:00 UTC
Forecast valid from 21 at 09 UTC to 22 at 09 UTC
Wind 12 kt from the West
Visibility 10 km or more
no clouds below 1500 m and no cumulonimbus
Temporary
from 21 at 09 UTC to 21 at 21 UTC
Few clouds at a height of 3000 ft
Temporary
from 21 at 16 UTC to 21 at 21 UTC
Few clouds at a height of 3000 ft, Cumulonimbus.
Becoming
from 22 at 02 UTC to 22 at 04 UTC
Wind 15 kt from the West with gusts up to 25 kt

TAF: LFMK 210800Z 2109/2209 28012KT CAVOK TEMPO 2109/2121 FEW030 TEMPO 2116/2121 FEW030CB BECMG 2202/2204 28015G25KT

Weather observations and forecasts of more than 4000 airports (METAR and TAF reports).

The available stations are represented by yellow and red dots on the map.

Hover mouse over dot to see the name of the station.

Then click to see weather observations and forecasts.

To change the map : click on the green buttons with a black cross to zoom in, on the green button with a dash to zoom out, or on the green arrows for adjacent maps.


METAR-TAF: